createdAt,value
2023-12-04T00:02:02.878Z,17.39
2023-12-04T00:04:32.312Z,17.50
2023-12-04T00:07:00.819Z,17.54
2023-12-04T00:09:29.578Z,17.49
2023-12-04T00:11:59.442Z,17.61
2023-12-04T00:14:27.459Z,17.60
2023-12-04T00:16:55.563Z,17.60
2023-12-04T00:19:23.542Z,17.63
2023-12-04T00:21:53.176Z,17.66
2023-12-04T00:24:21.102Z,17.58
2023-12-04T00:26:49.066Z,17.58
2023-12-04T00:29:17.049Z,17.45
2023-12-04T00:31:45.012Z,17.42
2023-12-04T00:34:13.628Z,17.33
2023-12-04T00:36:41.915Z,17.40
2023-12-04T00:39:11.262Z,17.42
2023-12-04T00:41:40.067Z,17.47
2023-12-04T00:44:08.090Z,17.36
2023-12-04T00:46:35.968Z,17.35
2023-12-04T00:49:04.119Z,17.35
2023-12-04T00:51:39.170Z,17.40
2023-12-04T00:54:07.188Z,17.21
2023-12-04T00:56:36.594Z,17.49
2023-12-04T00:59:05.104Z,17.40
2023-12-04T01:01:33.275Z,17.40
2023-12-04T01:04:01.648Z,17.27
2023-12-04T01:06:30.426Z,17.43
2023-12-04T01:08:59.321Z,17.48
2023-12-04T01:11:27.278Z,17.45
2023-12-04T01:13:57.329Z,17.44
2023-12-04T01:16:25.509Z,17.70
2023-12-04T01:18:54.010Z,17.48
2023-12-04T01:21:22.651Z,17.56
2023-12-04T01:23:53.375Z,17.43
2023-12-04T01:26:21.572Z,17.67
2023-12-04T01:28:50.176Z,17.65
2023-12-04T01:31:19.523Z,17.63
2023-12-04T01:33:47.517Z,17.61
2023-12-04T01:36:15.484Z,17.50
2023-12-04T01:38:43.534Z,17.57
2023-12-04T01:41:11.539Z,17.74
2023-12-04T01:43:39.563Z,17.70
2023-12-04T01:46:09.350Z,17.58
2023-12-04T01:48:39.334Z,17.67
2023-12-04T01:51:09.321Z,17.82
2023-12-04T01:53:38.777Z,17.82
2023-12-04T01:56:08.071Z,17.79
2023-12-04T01:58:36.363Z,17.73
2023-12-04T02:01:04.577Z,17.88
2023-12-04T02:03:33.196Z,17.86
2023-12-04T02:06:04.101Z,17.55
2023-12-04T02:08:32.237Z,17.73
2023-12-04T02:11:01.412Z,17.72
2023-12-04T02:13:29.704Z,17.79
2023-12-04T02:15:58.561Z,17.63
2023-12-04T02:18:27.166Z,17.52
2023-12-04T02:20:55.934Z,17.70
2023-12-04T02:23:25.446Z,17.79
2023-12-04T02:25:57.359Z,17.75
2023-12-04T02:28:25.633Z,17.81
2023-12-04T02:30:54.325Z,17.81
2023-12-04T02:33:26.047Z,17.72
2023-12-04T02:35:55.258Z,17.77
2023-12-04T02:38:23.250Z,17.66
2023-12-04T02:40:51.263Z,17.44
2023-12-04T02:43:20.753Z,17.57
2023-12-04T02:45:48.915Z,17.54
2023-12-04T02:48:16.953Z,17.42
2023-12-04T02:50:44.959Z,17.51
2023-12-04T02:53:12.896Z,17.59
2023-12-04T02:55:40.956Z,17.57
2023-12-04T02:58:08.974Z,17.62
2023-12-04T03:00:38.404Z,17.60
2023-12-04T03:03:06.427Z,17.68
2023-12-04T03:05:34.524Z,17.44
2023-12-04T03:08:03.413Z,17.63
2023-12-04T03:10:31.483Z,17.55
2023-12-04T03:12:59.546Z,17.66
2023-12-04T03:15:29.843Z,17.51
2023-12-04T03:18:04.627Z,17.54
2023-12-04T03:20:34.780Z,17.54
2023-12-04T03:23:03.575Z,17.56
2023-12-04T03:25:31.615Z,17.60
2023-12-04T03:27:59.660Z,17.63
2023-12-04T03:30:27.647Z,17.55
2023-12-04T03:32:55.685Z,17.57
2023-12-04T03:35:24.950Z,17.45
2023-12-04T03:37:52.931Z,17.39
2023-12-04T03:40:20.887Z,17.36
2023-12-04T03:42:48.986Z,17.13
2023-12-04T03:45:16.987Z,17.21
2023-12-04T03:47:45.196Z,17.16
2023-12-04T03:50:13.402Z,17.24
2023-12-04T03:52:42.932Z,17.10
2023-12-04T03:55:11.675Z,17.07
2023-12-04T03:57:39.745Z,17.01
2023-12-04T04:00:08.315Z,17.12
2023-12-04T04:02:42.486Z,17.01
2023-12-04T04:05:10.622Z,17.13
2023-12-04T04:07:38.759Z,17.00
2023-12-04T04:10:09.146Z,16.98
2023-12-04T04:12:37.315Z,16.90
2023-12-04T04:15:05.834Z,17.06
2023-12-04T04:17:35.052Z,17.15
2023-12-04T04:20:03.094Z,16.92
2023-12-04T04:22:30.982Z,16.81
2023-12-04T04:24:59.151Z,16.78
2023-12-04T04:27:28.547Z,16.78
2023-12-04T04:29:56.426Z,16.78
2023-12-04T04:32:24.211Z,16.88
2023-12-04T04:34:52.294Z,16.65
2023-12-04T04:37:20.165Z,16.65
2023-12-04T04:39:48.137Z,16.91
2023-12-04T04:42:16.861Z,16.72
2023-12-04T04:44:46.155Z,16.70
2023-12-04T04:47:14.057Z,16.76
2023-12-04T04:49:43.394Z,16.71
2023-12-04T04:52:11.494Z,16.73
2023-12-04T04:54:39.387Z,16.69
2023-12-04T04:57:07.312Z,16.64
2023-12-04T04:59:35.336Z,16.64
2023-12-04T05:02:05.433Z,16.21
2023-12-04T05:04:33.534Z,16.97
2023-12-04T05:07:01.484Z,16.36
2023-12-04T05:09:29.318Z,15.98
2023-12-04T05:11:57.621Z,15.73
2023-12-04T05:14:25.381Z,15.93
2023-12-04T05:16:53.273Z,15.77
2023-12-04T05:19:22.556Z,15.66
2023-12-04T05:21:50.652Z,15.28
2023-12-04T05:24:18.617Z,15.49
2023-12-04T05:26:46.526Z,15.25
2023-12-04T05:29:14.375Z,15.12
2023-12-04T05:31:42.212Z,15.32
2023-12-04T05:34:10.172Z,14.96
2023-12-04T05:36:39.541Z,15.86
2023-12-04T05:39:08.375Z,15.79
2023-12-04T05:41:36.866Z,15.10
2023-12-04T05:44:04.851Z,15.01
2023-12-04T05:46:33.486Z,15.89
2023-12-04T05:49:01.643Z,15.37
2023-12-04T05:51:32.664Z,15.14
2023-12-04T05:54:03.270Z,15.08
2023-12-04T05:56:31.173Z,15.43
2023-12-04T05:58:59.261Z,15.08
2023-12-04T06:01:27.119Z,14.97
2023-12-04T06:03:55.150Z,15.33
2023-12-04T06:06:23.088Z,14.99
2023-12-04T06:08:51.029Z,15.25
2023-12-04T06:11:20.292Z,15.18
2023-12-04T06:13:48.239Z,15.18
2023-12-04T06:16:16.151Z,15.25
2023-12-04T06:18:44.088Z,15.18
2023-12-04T06:21:12.018Z,15.34
2023-12-04T06:23:40.345Z,15.21
2023-12-04T06:26:09.520Z,15.13
2023-12-04T06:28:38.978Z,15.17
2023-12-04T06:31:07.416Z,15.29
2023-12-04T06:33:35.669Z,15.27
2023-12-04T06:36:07.980Z,15.23
2023-12-04T06:38:41.112Z,15.18
2023-12-04T06:41:09.684Z,14.89
2023-12-04T06:43:39.756Z,16.20
2023-12-04T06:46:09.211Z,15.53
2023-12-04T06:48:37.474Z,15.27
2023-12-04T06:51:05.709Z,15.15
2023-12-04T06:53:33.662Z,14.92
2023-12-04T06:56:01.827Z,15.40
2023-12-04T06:58:29.754Z,14.98
2023-12-04T07:00:59.049Z,15.15
2023-12-04T07:03:26.951Z,15.30
2023-12-04T07:05:55.331Z,15.07
2023-12-04T07:08:23.313Z,15.15
2023-12-04T07:10:51.288Z,14.97
2023-12-04T07:13:19.296Z,15.14
2023-12-04T07:15:47.583Z,15.16
2023-12-04T07:18:17.272Z,15.08
2023-12-04T07:20:45.208Z,15.19
2023-12-04T07:23:13.084Z,15.26
2023-12-04T07:25:41.037Z,15.20
2023-12-04T07:28:09.253Z,15.36
2023-12-04T07:30:37.178Z,15.45
2023-12-04T07:33:06.356Z,15.36
2023-12-04T07:35:37.109Z,15.20
2023-12-04T07:38:05.547Z,15.31
2023-12-04T07:40:33.619Z,15.41
2023-12-04T07:43:01.579Z,15.48
2023-12-04T07:45:29.541Z,15.35
2023-12-04T07:47:57.799Z,15.30
2023-12-04T07:50:26.768Z,15.46
2023-12-04T07:52:58.925Z,15.42
2023-12-04T07:55:26.744Z,15.29
2023-12-04T07:57:54.692Z,15.24
2023-12-04T08:00:23.992Z,15.85
2023-12-04T08:02:51.845Z,15.94
2023-12-04T08:05:19.801Z,16.13
2023-12-04T08:07:47.748Z,16.35
2023-12-04T08:10:17.912Z,16.21
2023-12-04T08:12:47.345Z,16.36
2023-12-04T08:15:15.447Z,16.46
2023-12-04T08:17:43.458Z,16.66
2023-12-04T08:20:20.007Z,16.75
2023-12-04T08:22:53.152Z,16.76
2023-12-04T08:25:23.063Z,16.87
2023-12-04T08:27:52.350Z,16.79
2023-12-04T08:30:20.406Z,17.05
2023-12-04T08:32:48.442Z,16.91
2023-12-04T08:35:16.435Z,17.05
2023-12-04T08:37:44.523Z,16.91
2023-12-04T08:40:12.959Z,16.90
2023-12-04T08:42:42.384Z,16.96
2023-12-04T08:45:11.886Z,16.89
2023-12-04T08:47:39.779Z,16.96
2023-12-04T08:50:08.477Z,17.04
2023-12-04T08:52:36.472Z,17.10
2023-12-04T08:55:04.490Z,17.07
2023-12-04T08:57:32.522Z,17.07
2023-12-04T09:00:01.763Z,17.17
2023-12-04T09:02:29.805Z,17.27
2023-12-04T09:04:57.902Z,17.03
2023-12-04T09:08:28.149Z,17.24
2023-12-04T09:10:21.210Z,17.16
2023-12-04T09:12:58.693Z,17.27
2023-12-04T09:15:28.305Z,17.28
2023-12-04T09:17:56.258Z,17.27
2023-12-04T09:20:24.269Z,17.15
2023-12-04T09:22:55.225Z,17.23
2023-12-04T09:25:25.693Z,17.24
2023-12-04T09:27:53.846Z,17.20
2023-12-04T09:30:21.785Z,17.26
2023-12-04T09:32:51.147Z,17.35
2023-12-04T09:35:19.360Z,17.32
2023-12-04T09:37:50.256Z,17.27
2023-12-04T09:40:18.289Z,17.21
2023-12-04T09:42:46.301Z,17.00
2023-12-04T09:45:14.801Z,17.15
2023-12-04T09:47:43.418Z,17.15
2023-12-04T09:50:13.134Z,17.18
2023-12-04T09:52:41.519Z,17.16
2023-12-04T09:55:09.427Z,17.27
2023-12-04T09:57:37.648Z,17.18
2023-12-04T10:00:07.456Z,17.21
2023-12-04T10:02:42.487Z,17.27
2023-12-04T10:05:10.742Z,17.15
2023-12-04T10:07:43.215Z,17.19
2023-12-04T10:10:11.233Z,17.15
2023-12-04T10:12:39.603Z,17.09
2023-12-04T10:15:09.280Z,17.21
2023-12-04T10:17:38.838Z,17.16
2023-12-04T10:20:11.959Z,17.20
2023-12-04T10:22:42.461Z,17.18
2023-12-04T10:25:17.344Z,17.12
2023-12-04T10:27:45.500Z,17.04
2023-12-04T10:30:24.852Z,17.10
2023-12-04T10:32:56.674Z,17.20
2023-12-04T10:35:25.347Z,17.17
2023-12-04T10:37:57.301Z,17.14
2023-12-04T10:40:25.550Z,17.29
2023-12-04T10:43:12.147Z,17.17
2023-12-04T10:45:40.750Z,17.15
2023-12-04T10:48:09.248Z,17.22
2023-12-04T10:50:39.421Z,17.24
2023-12-04T10:53:10.979Z,17.37
2023-12-04T10:55:40.681Z,17.24
2023-12-04T10:58:09.630Z,17.29
2023-12-04T11:00:38.502Z,17.26
2023-12-04T11:03:10.564Z,17.29
2023-12-04T11:05:40.206Z,17.33
2023-12-04T11:08:16.225Z,17.41
2023-12-04T11:10:51.232Z,17.40
2023-12-04T11:13:19.152Z,17.46
2023-12-04T11:15:51.744Z,17.41
2023-12-04T11:18:23.323Z,17.52
2023-12-04T11:20:54.155Z,17.54
2023-12-04T11:23:24.428Z,17.56
2023-12-04T11:25:52.846Z,17.54
2023-12-04T11:28:21.509Z,17.52
2023-12-04T11:30:51.296Z,17.51
2023-12-04T11:33:19.406Z,17.60
2023-12-04T11:35:47.589Z,17.63
2023-12-04T11:38:16.966Z,17.47
2023-12-04T11:40:48.258Z,17.58
2023-12-04T11:43:26.132Z,17.66
2023-12-04T11:45:54.995Z,17.73
2023-12-04T11:48:26.332Z,17.70
2023-12-04T11:50:54.325Z,17.68
2023-12-04T11:53:22.903Z,17.66
2023-12-04T11:55:52.775Z,17.62
2023-12-04T11:58:20.668Z,17.67
2023-12-04T12:00:49.691Z,17.77
2023-12-04T12:03:23.030Z,17.74
2023-12-04T12:05:54.087Z,17.84
2023-12-04T12:08:22.593Z,17.86
2023-12-04T12:10:50.531Z,17.85
2023-12-04T12:13:19.860Z,17.79
2023-12-04T12:15:49.275Z,17.84
2023-12-04T12:18:17.290Z,17.96
2023-12-04T12:20:45.351Z,17.94
2023-12-04T12:23:13.670Z,17.94
2023-12-04T12:25:41.809Z,17.94
2023-12-04T12:28:09.843Z,17.86
2023-12-04T12:30:39.437Z,17.92
2023-12-04T12:33:07.527Z,17.94
2023-12-04T12:35:36.077Z,18.04
2023-12-04T12:38:04.041Z,17.91
2023-12-04T12:40:32.034Z,18.03
2023-12-04T12:43:08.467Z,17.93
2023-12-04T12:45:45.036Z,18.03
2023-12-04T12:48:15.646Z,18.05
2023-12-04T12:50:44.035Z,18.05
2023-12-04T12:53:12.971Z,18.13
2023-12-04T12:55:41.242Z,18.08
2023-12-04T12:58:09.867Z,18.21
2023-12-04T13:00:38.162Z,18.13
2023-12-04T13:03:08.533Z,18.09
2023-12-04T13:05:36.676Z,18.19
2023-12-04T13:08:04.781Z,18.28
2023-12-04T13:10:32.880Z,18.25
2023-12-04T13:13:01.340Z,18.22
2023-12-04T13:15:29.172Z,18.27
2023-12-04T13:17:58.044Z,18.29
2023-12-04T13:20:27.383Z,18.32
2023-12-04T13:22:55.380Z,18.29
2023-12-04T13:25:26.944Z,18.52
2023-12-04T13:27:56.871Z,18.35
2023-12-04T13:30:24.877Z,18.24
2023-12-04T13:32:53.072Z,18.35
2023-12-04T13:35:21.117Z,18.43
2023-12-04T13:37:57.989Z,18.50
2023-12-04T13:40:29.465Z,18.49
2023-12-04T13:43:15.041Z,18.36
2023-12-04T13:45:42.916Z,18.48
2023-12-04T13:48:11.348Z,18.45
2023-12-04T13:50:39.974Z,18.37
2023-12-04T13:53:09.425Z,18.48
2023-12-04T13:55:49.048Z,18.41
2023-12-04T13:58:39.117Z,18.36
2023-12-04T14:01:15.257Z,18.44
2023-12-04T14:03:45.098Z,18.22
2023-12-04T14:06:13.859Z,18.21
2023-12-04T14:08:44.122Z,18.16
2023-12-04T14:11:12.493Z,18.14
2023-12-04T14:13:41.987Z,18.33
2023-12-04T14:16:10.719Z,18.43
2023-12-04T14:18:38.606Z,18.22
2023-12-04T14:21:06.788Z,18.20
2023-12-04T14:23:35.589Z,18.20
2023-12-04T14:26:05.277Z,18.15
2023-12-04T14:28:40.476Z,18.05
2023-12-04T14:31:11.445Z,17.92
2023-12-04T14:33:42.105Z,17.96
2023-12-04T14:36:13.173Z,18.13
2023-12-04T14:38:41.316Z,18.29
2023-12-04T14:41:11.878Z,18.31
2023-12-04T14:43:40.390Z,18.30
2023-12-04T14:46:10.465Z,18.64
2023-12-04T14:48:40.881Z,18.78
2023-12-04T14:51:09.534Z,19.25
2023-12-04T14:53:46.240Z,19.36
2023-12-04T14:56:34.995Z,19.52
2023-12-04T14:59:21.165Z,19.67
2023-12-04T15:02:21.768Z,19.72
2023-12-04T15:05:06.473Z,19.76
2023-12-04T15:07:57.603Z,19.87
2023-12-04T15:10:45.990Z,19.87
2023-12-04T15:13:40.359Z,19.96
2023-12-04T15:16:27.066Z,19.98
2023-12-04T15:19:23.183Z,19.95
2023-12-04T15:21:50.068Z,20.11
2023-12-04T15:24:17.967Z,20.03
2023-12-04T15:26:44.792Z,20.17
2023-12-04T15:29:14.757Z,20.22
2023-12-04T15:31:41.627Z,20.14
2023-12-04T15:34:09.855Z,20.22
2023-12-04T15:36:37.805Z,20.19
2023-12-04T15:39:04.804Z,20.16
2023-12-04T15:41:32.970Z,20.13
2023-12-04T15:43:59.825Z,20.12
2023-12-04T15:46:30.305Z,20.17
2023-12-04T15:49:00.323Z,20.29
2023-12-04T15:51:27.703Z,20.21
2023-12-04T15:53:55.551Z,20.24
2023-12-04T15:56:22.378Z,20.30
2023-12-04T15:58:50.440Z,20.24
2023-12-04T16:01:17.313Z,20.25
2023-12-04T16:03:46.744Z,20.20
2023-12-04T16:06:14.801Z,20.25
2023-12-04T16:08:42.825Z,20.30
2023-12-04T16:11:10.692Z,20.22
2023-12-04T16:13:38.666Z,20.18
2023-12-04T16:16:07.195Z,20.22
2023-12-04T16:18:35.320Z,20.24
2023-12-04T16:21:04.929Z,20.27
2023-12-04T16:23:33.500Z,20.33
2023-12-04T16:26:02.236Z,20.19
2023-12-04T16:28:30.641Z,20.26
2023-12-04T16:30:59.375Z,20.31
2023-12-04T16:33:28.029Z,20.20
2023-12-04T16:35:58.161Z,20.14
2023-12-04T16:38:29.025Z,20.25
2023-12-04T16:40:58.286Z,20.09
2023-12-04T16:43:28.397Z,20.12
2023-12-04T16:45:56.362Z,20.14
2023-12-04T16:48:24.897Z,20.05
2023-12-04T16:50:52.886Z,20.01
2023-12-04T16:53:20.704Z,20.23
2023-12-04T16:55:50.299Z,20.10
2023-12-04T16:58:18.257Z,20.11
2023-12-04T17:00:46.243Z,20.09
2023-12-04T17:03:15.553Z,20.09
2023-12-04T17:05:43.637Z,20.20
2023-12-04T17:08:11.618Z,20.12
2023-12-04T17:10:39.822Z,20.10
2023-12-04T17:13:10.056Z,19.96
2023-12-04T17:15:38.292Z,20.14
2023-12-04T17:18:06.393Z,20.11
2023-12-04T17:20:34.406Z,20.13
2023-12-04T17:23:02.376Z,20.22
2023-12-04T17:25:31.471Z,19.98
2023-12-04T17:27:59.570Z,20.15
2023-12-04T17:30:29.681Z,20.06
2023-12-04T17:32:58.199Z,20.06
2023-12-04T17:35:27.282Z,20.13
2023-12-04T17:37:55.226Z,20.13
2023-12-04T17:40:23.285Z,20.17
2023-12-04T17:42:51.721Z,20.15
2023-12-04T17:45:19.720Z,20.12
2023-12-04T17:47:49.048Z,20.22
2023-12-04T17:50:17.110Z,20.23
2023-12-04T17:52:44.955Z,20.13
2023-12-04T17:55:13.147Z,20.37
2023-12-04T17:57:43.330Z,20.15
2023-12-04T18:00:16.130Z,20.11
2023-12-04T18:02:46.958Z,20.12
2023-12-04T18:05:17.597Z,20.11
2023-12-04T18:07:45.628Z,20.17
2023-12-04T18:10:13.521Z,20.30
2023-12-04T18:12:41.878Z,20.21
2023-12-04T18:15:11.037Z,20.19
2023-12-04T18:17:42.923Z,20.07
2023-12-04T18:20:12.056Z,20.17
2023-12-04T18:22:41.304Z,20.12
2023-12-04T18:25:09.959Z,20.13
2023-12-04T18:27:38.119Z,20.18
2023-12-04T18:30:06.627Z,20.21
2023-12-04T18:32:34.878Z,20.13
2023-12-04T18:35:03.165Z,20.04
2023-12-04T18:37:34.130Z,20.20
2023-12-04T18:40:04.168Z,20.13
2023-12-04T18:42:32.545Z,20.05
2023-12-04T18:45:00.792Z,19.98
2023-12-04T18:47:29.666Z,20.14
2023-12-04T18:49:59.183Z,20.06
2023-12-04T18:52:27.326Z,20.11
2023-12-04T18:54:55.264Z,20.04
2023-12-04T18:57:24.633Z,20.12
2023-12-04T18:59:52.471Z,20.11
2023-12-04T19:02:20.653Z,19.98
2023-12-04T19:04:48.675Z,20.22
2023-12-04T19:07:16.743Z,20.11
2023-12-04T19:09:44.745Z,20.16
2023-12-04T19:12:15.001Z,20.05
2023-12-04T19:14:44.558Z,20.07
2023-12-04T19:17:12.481Z,20.09
2023-12-04T19:19:40.627Z,20.12
2023-12-04T19:22:08.721Z,20.08
2023-12-04T19:24:36.866Z,20.26
2023-12-04T19:27:05.081Z,20.10
2023-12-04T19:29:33.774Z,20.13
2023-12-04T19:32:03.105Z,20.16
2023-12-04T19:34:31.133Z,20.07
2023-12-04T19:37:00.602Z,20.13
2023-12-04T19:39:29.522Z,20.07
2023-12-04T19:41:57.399Z,20.02
2023-12-04T19:44:25.694Z,19.98
2023-12-04T19:46:55.644Z,20.12
2023-12-04T19:49:25.066Z,19.98
2023-12-04T19:51:53.057Z,19.81
2023-12-04T19:54:22.947Z,19.79
2023-12-04T19:56:51.004Z,19.74
2023-12-04T19:59:19.065Z,19.79
2023-12-04T20:01:47.138Z,19.71
2023-12-04T20:04:15.266Z,19.67
2023-12-04T20:06:48.419Z,19.71
2023-12-04T20:09:16.325Z,19.78
2023-12-04T20:11:44.496Z,19.65
2023-12-04T20:14:12.550Z,19.71
2023-12-04T20:16:40.771Z,19.67
2023-12-04T20:19:08.738Z,19.56
2023-12-04T20:21:37.628Z,19.62
2023-12-04T20:24:07.641Z,19.62
2023-12-04T20:26:35.767Z,19.63
2023-12-04T20:29:03.645Z,19.68
2023-12-04T20:31:31.573Z,19.47
2023-12-04T20:33:59.611Z,19.51
2023-12-04T20:36:27.609Z,19.44
2023-12-04T20:38:55.653Z,19.53
2023-12-04T20:41:24.921Z,19.56
2023-12-04T20:43:52.974Z,19.52
2023-12-04T20:46:20.966Z,19.39
2023-12-04T20:48:49.103Z,19.41
2023-12-04T20:51:17.102Z,19.41
2023-12-04T20:53:45.012Z,19.47
2023-12-04T20:56:14.003Z,19.36
2023-12-04T20:58:43.398Z,19.46
2023-12-04T21:01:16.169Z,19.57
2023-12-04T21:03:44.161Z,19.39
2023-12-04T21:06:13.562Z,19.46
2023-12-04T21:08:42.781Z,19.33
2023-12-04T21:11:10.715Z,19.44
2023-12-04T21:13:38.840Z,19.49
2023-12-04T21:16:08.882Z,19.57
2023-12-04T21:18:37.283Z,19.59
2023-12-04T21:21:07.582Z,19.33
2023-12-04T21:23:35.485Z,19.43
2023-12-04T21:26:04.680Z,19.48
2023-12-04T21:28:32.817Z,19.41
2023-12-04T21:31:04.145Z,19.55
2023-12-04T21:33:33.716Z,19.50
2023-12-04T21:36:01.747Z,19.46
2023-12-04T21:38:29.747Z,19.38
2023-12-04T21:40:57.615Z,19.44
2023-12-04T21:43:25.488Z,19.45
2023-12-04T21:45:56.617Z,19.47
2023-12-04T21:48:24.808Z,19.35
2023-12-04T21:50:54.225Z,19.41
2023-12-04T21:53:22.293Z,19.48
2023-12-04T21:55:50.249Z,19.47
2023-12-04T21:58:18.369Z,19.42
2023-12-04T22:00:47.124Z,19.42
2023-12-04T22:03:15.323Z,19.38
2023-12-04T22:05:43.743Z,19.40
2023-12-04T22:08:13.185Z,19.40
2023-12-04T22:10:41.102Z,19.38
2023-12-04T22:13:09.072Z,19.37
2023-12-04T22:15:37.137Z,19.36
2023-12-04T22:18:05.713Z,19.47
2023-12-04T22:20:34.104Z,19.31
2023-12-04T22:23:02.025Z,19.38
2023-12-04T22:25:31.552Z,19.37
2023-12-04T22:28:02.412Z,19.21
2023-12-04T22:30:30.307Z,19.38
2023-12-04T22:32:58.254Z,19.48
2023-12-04T22:35:26.219Z,19.56
2023-12-04T22:37:54.173Z,19.33
2023-12-04T22:40:23.268Z,19.38
2023-12-04T22:42:52.594Z,19.32
2023-12-04T22:45:20.881Z,19.09
2023-12-04T22:47:48.818Z,19.38
2023-12-04T22:50:16.837Z,19.42
2023-12-04T22:52:44.865Z,19.38
2023-12-04T22:55:13.516Z,19.27
2023-12-04T22:57:41.522Z,19.21
2023-12-04T23:00:13.161Z,19.36
2023-12-04T23:02:41.774Z,19.25
2023-12-04T23:05:10.117Z,19.27
2023-12-04T23:07:39.013Z,19.16
2023-12-04T23:10:08.059Z,19.16
2023-12-04T23:12:36.486Z,19.25
2023-12-04T23:15:05.187Z,19.35
2023-12-04T23:17:34.602Z,19.19
2023-12-04T23:20:02.715Z,19.17
2023-12-04T23:22:30.685Z,19.22
2023-12-04T23:24:58.622Z,19.25
2023-12-04T23:27:32.429Z,19.22
2023-12-04T23:30:07.344Z,19.30
2023-12-04T23:32:37.048Z,19.14
2023-12-04T23:35:06.394Z,19.19
2023-12-04T23:37:34.394Z,19.18
2023-12-04T23:40:02.245Z,19.01
2023-12-04T23:42:30.388Z,19.24
2023-12-04T23:44:58.423Z,19.32
2023-12-04T23:47:26.318Z,19.25
2023-12-04T23:49:55.730Z,19.18
2023-12-04T23:52:24.066Z,19.13
2023-12-04T23:54:52.067Z,19.15
2023-12-04T23:57:19.963Z,19.01
2023-12-04T23:59:47.786Z,19.17
